createdAt,value
2024-01-09T00:01:22.131Z,97501.16
2024-01-09T00:03:48.969Z,97502.91
2024-01-09T00:06:16.273Z,97509.41
2024-01-09T00:08:44.267Z,97512.02
2024-01-09T00:11:14.552Z,97515.77
2024-01-09T00:13:42.811Z,97518.84
2024-01-09T00:16:09.820Z,97520.56
2024-01-09T00:18:36.810Z,97523.14
2024-01-09T00:21:04.095Z,97529.48
2024-01-09T00:23:31.027Z,97533.40
2024-01-09T00:25:58.058Z,97535.46
2024-01-09T00:28:24.824Z,97541.81
2024-01-09T00:30:51.846Z,97546.27
2024-01-09T00:33:18.912Z,97548.48
2024-01-09T00:35:46.058Z,97551.23
2024-01-09T00:38:12.907Z,97552.10
2024-01-09T00:40:40.518Z,97559.29
2024-01-09T00:43:07.189Z,97561.70
2024-01-09T00:45:36.318Z,97561.73
2024-01-09T00:48:05.708Z,97566.02
2024-01-09T00:50:32.516Z,97566.87
2024-01-09T00:52:59.390Z,97567.40
2024-01-09T00:55:26.228Z,97574.77
2024-01-09T00:57:52.974Z,97573.59
2024-01-09T01:00:19.714Z,97573.84
2024-01-09T01:02:46.610Z,97578.45
2024-01-09T01:05:16.063Z,97581.57
2024-01-09T01:07:43.510Z,97581.09
2024-01-09T01:10:17.398Z,97585.56
2024-01-09T01:12:47.456Z,97585.72
2024-01-09T01:15:14.635Z,97589.70
2024-01-09T01:17:41.658Z,97592.13
2024-01-09T01:20:09.714Z,97594.68
2024-01-09T01:22:36.777Z,97594.70
2024-01-09T01:25:04.260Z,97596.11
2024-01-09T01:27:31.240Z,97597.33
2024-01-09T01:29:58.261Z,97600.26
2024-01-09T01:32:25.084Z,97602.51
2024-01-09T01:34:51.864Z,97605.26
2024-01-09T01:37:18.515Z,97609.21
2024-01-09T01:39:45.153Z,97611.62
2024-01-09T01:42:11.839Z,97614.37
2024-01-09T01:44:38.700Z,97616.48
2024-01-09T01:47:06.260Z,97619.23
2024-01-09T01:49:33.761Z,97621.13
2024-01-09T01:52:01.260Z,97625.94
2024-01-09T01:54:29.394Z,97626.79
2024-01-09T01:56:58.433Z,97628.17
2024-01-09T01:59:25.360Z,97631.94
2024-01-09T02:01:52.651Z,97631.28
2024-01-09T02:04:20.798Z,97628.55
2024-01-09T02:06:47.952Z,97631.98
2024-01-09T02:09:15.935Z,97636.43
2024-01-09T02:11:43.761Z,97636.77
2024-01-09T02:14:11.268Z,97639.21
2024-01-09T02:16:38.526Z,97641.14
2024-01-09T02:19:05.359Z,97640.64
2024-01-09T02:21:32.426Z,97638.61
2024-01-09T02:23:59.453Z,97642.92
2024-01-09T02:26:53.983Z,97641.92
2024-01-09T02:29:25.310Z,97644.53
2024-01-09T02:31:53.282Z,97650.70
2024-01-09T02:34:22.133Z,97649.37
2024-01-09T02:36:49.123Z,97653.16
2024-01-09T02:39:15.757Z,97654.58
2024-01-09T02:41:42.592Z,97658.57
2024-01-09T02:44:09.386Z,97657.23
2024-01-09T02:46:36.304Z,97658.45
2024-01-09T02:49:03.496Z,97663.09
2024-01-09T02:51:30.520Z,97664.16
2024-01-09T02:53:57.285Z,97671.02
2024-01-09T02:56:24.522Z,97672.61
2024-01-09T02:58:51.323Z,97675.23
2024-01-09T03:01:18.774Z,97678.85
2024-01-09T03:03:45.802Z,97679.60
2024-01-09T03:06:13.145Z,97682.20
2024-01-09T03:08:40.175Z,97691.11
2024-01-09T03:11:06.955Z,97691.89
2024-01-09T03:13:34.014Z,97697.90
2024-01-09T03:16:00.671Z,97701.52
2024-01-09T03:18:27.620Z,97703.64
2024-01-09T03:20:54.751Z,97708.98
2024-01-09T03:23:21.579Z,97712.95
2024-01-09T03:25:48.361Z,97716.08
2024-01-09T03:28:15.062Z,97716.33
2024-01-09T03:30:41.743Z,97718.92
2024-01-09T03:33:08.676Z,97721.38
2024-01-09T03:35:35.559Z,97721.95
2024-01-09T03:38:02.426Z,97724.22
2024-01-09T03:40:29.397Z,97728.04
2024-01-09T03:42:56.050Z,97733.91
2024-01-09T03:45:24.476Z,97735.48
2024-01-09T03:47:51.359Z,97736.57
2024-01-09T03:50:18.214Z,97745.16
2024-01-09T03:52:45.303Z,97754.42
2024-01-09T03:55:12.561Z,97758.41
2024-01-09T03:57:39.346Z,97757.95
2024-01-09T04:00:07.207Z,97762.26
2024-01-09T04:02:34.115Z,97765.38
2024-01-09T04:05:01.867Z,97770.74
2024-01-09T04:07:28.944Z,97777.77
2024-01-09T04:09:58.115Z,97784.80
2024-01-09T04:12:24.792Z,97790.13
2024-01-09T04:14:51.788Z,97794.97
2024-01-09T04:17:18.570Z,97796.52
2024-01-09T04:19:45.435Z,97796.39
2024-01-09T04:22:12.172Z,97803.13
2024-01-09T04:24:39.011Z,97811.35
2024-01-09T04:27:05.764Z,97815.81
2024-01-09T04:29:32.656Z,97816.88
2024-01-09T04:31:59.517Z,97821.55
2024-01-09T04:34:26.746Z,97824.48
2024-01-09T04:36:53.846Z,97824.85
2024-01-09T04:39:20.696Z,97822.70
2024-01-09T04:41:47.620Z,97826.87
2024-01-09T04:44:14.644Z,97832.04
2024-01-09T04:46:41.591Z,97835.67
2024-01-09T04:49:08.537Z,97836.73
2024-01-09T04:51:35.329Z,97839.37
2024-01-09T04:54:02.022Z,97839.08
2024-01-09T04:56:28.807Z,97841.67
2024-01-09T04:58:55.810Z,97846.88
2024-01-09T05:01:23.313Z,97852.70
2024-01-09T05:03:50.728Z,97858.02
2024-01-09T05:06:18.693Z,97862.55
2024-01-09T05:08:46.796Z,97865.98
2024-01-09T05:11:17.869Z,97869.13
2024-01-09T05:13:47.453Z,97870.40
2024-01-09T05:16:14.483Z,97875.23
2024-01-09T05:18:41.423Z,97876.33
2024-01-09T05:21:09.110Z,97883.52
2024-01-09T05:23:35.988Z,97888.70
2024-01-09T05:26:04.246Z,97895.40
2024-01-09T05:28:31.255Z,97899.18
2024-01-09T05:30:58.004Z,97898.73
2024-01-09T05:33:24.918Z,97903.20
2024-01-09T05:35:51.926Z,97909.36
2024-01-09T05:38:19.543Z,97914.17
2024-01-09T05:40:47.395Z,97917.95
2024-01-09T05:43:14.435Z,97923.63
2024-01-09T05:45:41.205Z,97927.27
2024-01-09T05:48:08.370Z,97927.51
2024-01-09T05:50:35.555Z,97937.61
2024-01-09T05:53:02.842Z,97942.11
2024-01-09T05:55:29.701Z,97947.96
2024-01-09T05:57:56.842Z,97950.92
2024-01-09T06:00:23.520Z,97958.35
2024-01-09T06:02:50.319Z,97968.81
2024-01-09T06:05:17.407Z,97970.92
2024-01-09T06:07:44.423Z,97978.46
2024-01-09T06:10:11.141Z,97982.92
2024-01-09T06:12:38.126Z,97990.81
2024-01-09T06:15:05.367Z,97999.55
2024-01-09T06:17:32.708Z,98007.42
2024-01-09T06:20:01.605Z,98010.89
2024-01-09T06:22:28.480Z,98013.00
2024-01-09T06:24:55.331Z,98019.70
2024-01-09T06:27:22.217Z,98023.68
2024-01-09T06:29:49.000Z,98026.45
2024-01-09T06:32:15.776Z,98027.20
2024-01-09T06:34:42.452Z,98029.14
2024-01-09T06:37:09.267Z,98034.00
2024-01-09T06:39:37.420Z,98044.46
2024-01-09T06:42:04.819Z,98051.70
2024-01-09T06:44:31.849Z,98057.39
2024-01-09T06:46:58.643Z,98060.54
2024-01-09T06:49:25.704Z,98064.01
2024-01-09T06:51:54.379Z,98070.55
2024-01-09T06:54:21.293Z,98076.60
2024-01-09T06:56:48.029Z,98081.12
2024-01-09T06:59:15.026Z,98087.64
2024-01-09T07:01:42.019Z,98092.13
2024-01-09T07:04:09.284Z,98092.20
2024-01-09T07:06:36.181Z,98097.88
2024-01-09T07:09:04.014Z,98097.58
2024-01-09T07:11:31.240Z,98101.18
2024-01-09T07:13:58.111Z,98106.69
2024-01-09T07:16:25.069Z,98109.60
2024-01-09T07:18:52.477Z,98114.20
2024-01-09T07:21:19.795Z,98116.24
2024-01-09T07:23:47.605Z,98118.45
2024-01-09T07:26:14.826Z,98119.48
2024-01-09T07:28:42.407Z,98126.29
2024-01-09T07:31:09.925Z,98133.44
2024-01-09T07:33:37.207Z,98134.97
2024-01-09T07:36:04.630Z,98140.06
2024-01-09T07:38:31.332Z,98145.83
2024-01-09T07:41:00.689Z,98152.48
2024-01-09T07:43:28.903Z,98156.38
2024-01-09T07:45:55.692Z,98157.24
2024-01-09T07:48:23.210Z,98160.31
2024-01-09T07:50:50.548Z,98166.62
2024-01-09T07:53:17.391Z,98166.63
2024-01-09T07:55:44.486Z,98175.48
2024-01-09T07:58:11.234Z,98170.73
2024-01-09T08:00:38.746Z,98179.23
2024-01-09T08:03:06.737Z,98186.56
2024-01-09T08:05:34.126Z,98186.05
2024-01-09T08:08:01.411Z,98187.93
2024-01-09T08:10:28.684Z,98191.52
2024-01-09T08:12:55.418Z,98197.48
2024-01-09T08:15:22.110Z,98200.55
2024-01-09T08:17:49.120Z,98205.33
2024-01-09T08:20:16.527Z,98206.86
2024-01-09T08:22:43.503Z,98210.93
2024-01-09T08:25:10.405Z,98210.92
2024-01-09T08:27:37.946Z,98214.33
2024-01-09T08:30:06.297Z,98214.48
2024-01-09T08:32:33.691Z,98216.70
2024-01-09T08:35:01.329Z,98219.41
2024-01-09T08:37:28.349Z,98217.48
2024-01-09T08:39:55.055Z,98224.47
2024-01-09T08:42:21.763Z,98222.58
2024-01-09T08:44:48.818Z,98225.78
2024-01-09T08:47:17.086Z,98231.38
2024-01-09T08:49:44.569Z,98234.24
2024-01-09T08:52:11.434Z,98233.85
2024-01-09T08:54:38.068Z,98238.24
2024-01-09T08:57:05.872Z,98237.01
2024-01-09T08:59:32.680Z,98239.89
2024-01-09T09:01:59.491Z,98241.04
2024-01-09T09:04:26.167Z,98244.77
2024-01-09T09:06:53.112Z,98245.42
2024-01-09T09:09:19.942Z,98251.33
2024-01-09T09:11:46.620Z,98254.38
2024-01-09T09:14:14.024Z,98252.48
2024-01-09T09:16:43.925Z,98254.14
2024-01-09T09:19:11.354Z,98252.25
2024-01-09T09:21:38.638Z,98254.59
2024-01-09T09:24:06.206Z,98248.77
2024-01-09T09:26:33.642Z,98251.61
2024-01-09T09:29:07.786Z,98252.59
2024-01-09T09:31:42.105Z,98251.17
2024-01-09T09:34:09.478Z,98248.77
2024-01-09T09:36:36.572Z,98250.95
2024-01-09T09:39:03.800Z,98250.23
2024-01-09T09:41:33.297Z,98252.92
2024-01-09T09:44:03.980Z,98254.59
2024-01-09T09:46:33.931Z,98254.56
2024-01-09T09:49:02.114Z,98255.88
2024-01-09T09:51:29.798Z,98255.50
2024-01-09T09:53:58.313Z,98252.39
2024-01-09T09:56:26.183Z,98251.15
2024-01-09T09:58:53.074Z,98254.18
2024-01-09T10:01:23.104Z,98248.50
2024-01-09T10:03:57.271Z,98247.11
2024-01-09T10:06:27.736Z,98247.56
2024-01-09T10:08:57.227Z,98247.52
2024-01-09T10:11:24.040Z,98241.49
2024-01-09T10:13:52.428Z,98237.36
2024-01-09T10:16:19.749Z,98237.65
2024-01-09T10:18:46.583Z,98234.70
2024-01-09T10:21:13.766Z,98241.11
2024-01-09T10:23:41.445Z,98240.21
2024-01-09T10:26:14.327Z,98241.85
2024-01-09T10:28:41.925Z,98242.64
2024-01-09T10:31:09.454Z,98243.95
2024-01-09T10:33:42.787Z,98244.23
2024-01-09T10:36:10.284Z,98244.34
2024-01-09T10:38:37.204Z,98239.52
2024-01-09T10:41:18.303Z,98240.45
2024-01-09T10:43:45.478Z,98239.36
2024-01-09T10:46:12.353Z,98240.85
2024-01-09T10:48:41.993Z,98241.46
2024-01-09T10:51:12.491Z,98237.82
2024-01-09T10:53:41.154Z,98237.40
2024-01-09T10:56:10.155Z,98233.58
2024-01-09T10:58:38.618Z,98233.70
2024-01-09T11:01:05.658Z,98231.45
2024-01-09T11:03:32.616Z,98227.29
2024-01-09T11:06:00.084Z,98229.27
2024-01-09T11:08:28.382Z,98232.44
2024-01-09T11:10:56.460Z,98236.48
2024-01-09T11:13:24.905Z,98239.81
2024-01-09T11:15:54.815Z,98237.04
2024-01-09T11:18:23.033Z,98239.02
2024-01-09T11:21:03.684Z,98237.95
2024-01-09T11:23:42.885Z,98237.54
2024-01-09T11:26:12.939Z,98234.39
2024-01-09T11:28:43.753Z,98236.70
2024-01-09T11:33:42.928Z,98237.45
2024-01-09T11:36:12.243Z,98235.98
2024-01-09T11:38:39.880Z,98241.23
2024-01-09T11:41:09.837Z,98236.88
2024-01-09T11:43:59.188Z,98244.00
2024-01-09T11:46:27.675Z,98244.79
2024-01-09T11:48:55.848Z,98243.54
2024-01-09T11:51:23.778Z,98243.48
2024-01-09T11:53:51.317Z,98244.30
2024-01-09T11:56:20.115Z,98246.48
2024-01-09T11:58:50.905Z,98241.82
2024-01-09T12:01:20.127Z,98247.76
2024-01-09T12:03:57.937Z,98244.13
2024-01-09T12:06:31.171Z,98238.11
2024-01-09T12:08:58.744Z,98244.06
2024-01-09T12:11:25.934Z,98246.38
2024-01-09T12:14:03.456Z,98251.48
2024-01-09T12:16:31.839Z,98247.19
2024-01-09T12:19:00.045Z,98245.60
2024-01-09T12:21:29.532Z,98246.59
2024-01-09T12:24:18.665Z,98247.42
2024-01-09T12:26:47.241Z,98246.66
2024-01-09T12:29:14.137Z,98249.02
2024-01-09T12:31:41.531Z,98254.95
2024-01-09T12:34:08.804Z,98257.81
2024-01-09T12:36:35.870Z,98258.98
2024-01-09T12:39:03.978Z,98259.13
2024-01-09T12:41:30.885Z,98264.56
2024-01-09T12:44:09.346Z,98267.45
2024-01-09T12:46:36.443Z,98270.48
2024-01-09T12:49:03.758Z,98270.80
2024-01-09T12:51:32.845Z,98273.52
2024-01-09T12:53:59.660Z,98276.20
2024-01-09T12:56:26.995Z,98280.45
2024-01-09T12:58:54.478Z,98281.95
2024-01-09T13:01:21.398Z,98287.55
2024-01-09T13:03:51.335Z,98287.52
2024-01-09T13:06:18.312Z,98296.56
2024-01-09T13:08:45.091Z,98300.81
2024-01-09T13:11:11.918Z,98302.86
2024-01-09T13:13:43.107Z,98300.44
2024-01-09T13:16:10.395Z,98296.99
2024-01-09T13:18:37.472Z,98296.80
2024-01-09T13:21:04.960Z,98300.74
2024-01-09T13:26:03.470Z,98293.90
2024-01-09T13:28:30.324Z,98297.15
2024-01-09T13:30:59.079Z,98296.30
2024-01-09T13:33:27.386Z,98298.39
2024-01-09T13:35:55.869Z,98304.20
2024-01-09T13:38:22.609Z,98299.77
2024-01-09T13:40:49.865Z,98301.33
2024-01-09T13:43:17.464Z,98302.71
2024-01-09T13:45:45.014Z,98303.08
2024-01-09T13:48:13.397Z,98306.22
2024-01-09T13:53:10.055Z,98304.41
2024-01-09T13:55:36.896Z,98305.50
2024-01-09T13:58:04.900Z,98308.95
2024-01-09T14:00:33.450Z,98306.75
2024-01-09T14:03:00.934Z,98308.17
2024-01-09T14:05:29.082Z,98308.03
2024-01-09T14:07:56.311Z,98310.47
2024-01-09T14:10:23.477Z,98309.00
2024-01-09T14:12:50.822Z,98311.58
2024-01-09T14:15:18.826Z,98313.67
2024-01-09T14:17:45.677Z,98312.88
2024-01-09T14:20:13.111Z,98317.85
2024-01-09T14:22:40.088Z,98318.23
2024-01-09T14:25:08.503Z,98321.86
2024-01-09T14:27:35.421Z,98325.34
2024-01-09T14:30:03.925Z,98325.86
2024-01-09T14:32:31.292Z,98325.41
2024-01-09T14:34:58.546Z,98333.48
2024-01-09T14:37:25.736Z,98339.98
2024-01-09T14:39:53.274Z,98344.48
2024-01-09T14:42:20.734Z,98348.45
2024-01-09T14:44:47.377Z,98349.34
2024-01-09T14:47:15.392Z,98349.57
2024-01-09T14:49:42.730Z,98349.77
2024-01-09T14:52:09.832Z,98352.90
2024-01-09T14:54:38.075Z,98350.73
2024-01-09T14:57:05.413Z,98354.71
2024-01-09T14:59:32.824Z,98353.72
2024-01-09T15:01:59.673Z,98360.27
2024-01-09T15:04:26.696Z,98361.69
2024-01-09T15:06:57.695Z,98362.77
2024-01-09T15:09:28.385Z,98363.66
2024-01-09T15:11:55.363Z,98366.27
2024-01-09T15:14:22.530Z,98367.52
2024-01-09T15:16:49.512Z,98374.41
2024-01-09T15:19:16.264Z,98375.67
2024-01-09T15:21:43.274Z,98379.67
2024-01-09T15:24:10.054Z,98383.50
2024-01-09T15:26:41.099Z,98382.04
2024-01-09T15:29:09.244Z,98384.53
2024-01-09T15:31:40.061Z,98388.54
2024-01-09T15:34:07.464Z,98389.30
2024-01-09T15:36:34.534Z,98387.52
2024-01-09T15:39:01.195Z,98390.30
2024-01-09T15:41:28.520Z,98393.27
2024-01-09T15:43:56.234Z,98390.24
2024-01-09T15:46:24.643Z,98393.68
2024-01-09T15:48:52.923Z,98394.57
2024-01-09T15:51:21.209Z,98401.11
2024-01-09T15:53:51.952Z,98403.52
2024-01-09T15:56:22.985Z,98409.38
2024-01-09T15:58:50.627Z,98410.09
2024-01-09T16:01:22.197Z,98415.58
2024-01-09T16:03:50.591Z,98420.91
2024-01-09T16:06:22.422Z,98422.82
2024-01-09T16:08:52.235Z,98426.44
2024-01-09T16:11:20.229Z,98428.33
2024-01-09T16:13:47.776Z,98431.44
2024-01-09T16:16:19.435Z,98431.13
2024-01-09T16:18:46.738Z,98429.63
2024-01-09T16:21:14.398Z,98437.02
2024-01-09T16:23:42.086Z,98437.22
2024-01-09T16:26:09.731Z,98443.25
2024-01-09T16:28:37.405Z,98446.34
2024-01-09T16:31:07.287Z,98447.81
2024-01-09T16:33:34.866Z,98444.73
2024-01-09T16:36:04.709Z,98446.04
2024-01-09T16:38:31.664Z,98448.33
2024-01-09T16:40:58.442Z,98451.64
2024-01-09T16:43:25.362Z,98455.63
2024-01-09T16:45:53.120Z,98459.96
2024-01-09T16:50:49.985Z,98458.71
2024-01-09T16:53:17.161Z,98463.70
2024-01-09T16:55:44.490Z,98461.69
2024-01-09T16:58:11.402Z,98466.52
2024-01-09T17:00:38.465Z,98467.21
2024-01-09T17:03:05.895Z,98467.25
2024-01-09T17:05:33.300Z,98469.66
2024-01-09T17:08:00.393Z,98470.39
2024-01-09T17:10:28.448Z,98471.62
2024-01-09T17:12:55.437Z,98472.90
2024-01-09T17:15:26.090Z,98475.52
2024-01-09T17:17:53.660Z,98477.45
2024-01-09T17:20:20.546Z,98477.84
2024-01-09T17:22:47.590Z,98476.67
2024-01-09T17:25:15.765Z,98479.09
2024-01-09T17:27:42.589Z,98482.19
2024-01-09T17:30:11.294Z,98484.11
2024-01-09T17:32:39.056Z,98484.64
2024-01-09T17:35:07.518Z,98484.34
2024-01-09T17:37:34.438Z,98489.65
2024-01-09T17:40:01.822Z,98490.52
2024-01-09T17:42:33.087Z,98491.23
2024-01-09T17:45:00.763Z,98489.89
2024-01-09T17:47:28.582Z,98490.40
2024-01-09T17:49:56.039Z,98490.25
2024-01-09T17:52:22.777Z,98486.88
2024-01-09T17:54:49.774Z,98488.57
2024-01-09T17:57:16.428Z,98487.21
2024-01-09T17:59:47.467Z,98485.70
2024-01-09T18:02:17.538Z,98489.11
2024-01-09T18:04:44.755Z,98491.00
2024-01-09T18:07:11.782Z,98491.52
2024-01-09T18:09:38.439Z,98492.19
2024-01-09T18:12:06.377Z,98495.26
2024-01-09T18:14:33.252Z,98498.00
2024-01-09T18:17:00.298Z,98501.60
2024-01-09T18:19:27.414Z,98499.91
2024-01-09T18:21:56.621Z,98499.26
2024-01-09T18:24:23.852Z,98501.64
2024-01-09T18:26:54.299Z,98495.38
2024-01-09T18:29:23.622Z,98502.87
2024-01-09T18:31:53.517Z,98501.69
2024-01-09T18:34:21.453Z,98506.98
2024-01-09T18:36:52.061Z,98509.73
2024-01-09T18:39:21.698Z,98513.49
2024-01-09T18:41:49.027Z,98515.74
2024-01-09T18:44:16.157Z,98514.40
2024-01-09T18:46:43.228Z,98513.58
2024-01-09T18:49:10.074Z,98516.33
2024-01-09T18:51:36.852Z,98516.70
2024-01-09T18:54:04.631Z,98519.61
2024-01-09T18:56:31.464Z,98523.21
2024-01-09T18:58:58.441Z,98525.96
2024-01-09T19:01:25.272Z,98529.04
2024-01-09T19:03:52.172Z,98525.83
2024-01-09T19:06:19.697Z,98531.27
2024-01-09T19:08:46.957Z,98533.30
2024-01-09T19:11:17.922Z,98534.17
2024-01-09T19:13:46.006Z,98535.38
2024-01-09T19:16:12.953Z,98536.40
2024-01-09T19:18:39.928Z,98533.17
2024-01-09T19:21:06.860Z,98536.58
2024-01-09T19:23:33.965Z,98542.20
2024-01-09T19:26:00.952Z,98543.05
2024-01-09T19:28:27.863Z,98540.67
2024-01-09T19:30:55.004Z,98546.29
2024-01-09T19:33:21.990Z,98548.66
2024-01-09T19:35:48.817Z,98553.28
2024-01-09T19:38:15.625Z,98554.15
2024-01-09T19:40:42.558Z,98550.23
2024-01-09T19:43:09.459Z,98548.20
2024-01-09T19:45:36.285Z,98548.02
2024-01-09T19:48:04.641Z,98548.91
2024-01-09T19:50:32.819Z,98554.18
2024-01-09T19:52:59.594Z,98554.70
2024-01-09T19:55:26.579Z,98549.46
2024-01-09T19:57:53.648Z,98550.16
2024-01-09T20:00:24.708Z,98550.02
2024-01-09T20:02:51.878Z,98552.23
2024-01-09T20:05:19.077Z,98558.17
2024-01-09T20:07:46.698Z,98554.45
2024-01-09T20:10:13.590Z,98552.60
2024-01-09T20:12:45.912Z,98549.55
2024-01-09T20:15:16.151Z,98549.56
2024-01-09T20:17:43.873Z,98551.77
2024-01-09T20:20:20.577Z,98551.95
2024-01-09T20:22:48.213Z,98556.21
2024-01-09T20:25:15.453Z,98555.55
2024-01-09T20:27:42.483Z,98560.98
2024-01-09T20:30:10.483Z,98559.29
2024-01-09T20:32:39.742Z,98560.64
2024-01-09T20:35:10.242Z,98559.29
2024-01-09T20:37:37.554Z,98561.98
2024-01-09T20:40:05.734Z,98567.58
2024-01-09T20:42:33.259Z,98568.44
2024-01-09T20:45:00.835Z,98565.88
2024-01-09T20:47:30.921Z,98566.39
2024-01-09T20:49:59.159Z,98570.45
2024-01-09T20:52:26.466Z,98567.40
2024-01-09T20:54:53.431Z,98563.84
2024-01-09T20:57:20.495Z,98562.84
2024-01-09T20:59:47.579Z,98565.02
2024-01-09T21:02:16.455Z,98562.64
2024-01-09T21:04:44.002Z,98562.13
2024-01-09T21:07:10.824Z,98559.92
2024-01-09T21:09:40.171Z,98559.26
2024-01-09T21:12:07.743Z,98562.15
2024-01-09T21:14:34.649Z,98561.98
2024-01-09T21:17:01.378Z,98561.48
2024-01-09T21:19:30.028Z,98562.48
2024-01-09T21:21:56.945Z,98560.45
2024-01-09T21:24:23.684Z,98561.64
2024-01-09T21:26:51.688Z,98562.65
2024-01-09T21:29:18.797Z,98565.36
2024-01-09T21:31:46.715Z,98564.86
2024-01-09T21:34:15.421Z,98568.08
2024-01-09T21:36:42.283Z,98568.39
2024-01-09T21:39:09.306Z,98569.75
2024-01-09T21:41:36.493Z,98574.34
2024-01-09T21:44:04.836Z,98576.55
2024-01-09T21:46:31.687Z,98574.17
2024-01-09T21:48:58.825Z,98576.72
2024-01-09T21:51:26.244Z,98576.20
2024-01-09T21:53:52.859Z,98576.70
2024-01-09T21:56:19.655Z,98573.98
2024-01-09T21:58:46.368Z,98575.52
2024-01-09T22:01:13.505Z,98577.54
2024-01-09T22:03:40.367Z,98573.13
2024-01-09T22:06:07.902Z,98572.96
2024-01-09T22:08:34.983Z,98570.23
2024-01-09T22:11:04.264Z,98571.09
2024-01-09T22:13:31.804Z,98576.17
2024-01-09T22:15:58.684Z,98573.45
2024-01-09T22:18:25.522Z,98569.72
2024-01-09T22:20:52.660Z,98572.77
2024-01-09T22:23:19.533Z,98565.83
2024-01-09T22:25:46.440Z,98566.50
2024-01-09T22:28:13.305Z,98566.84
2024-01-09T22:30:40.853Z,98565.64
2024-01-09T22:33:08.005Z,98563.25
2024-01-09T22:35:35.235Z,98562.90
2024-01-09T22:38:01.977Z,98561.20
2024-01-09T22:40:28.650Z,98559.84
2024-01-09T22:42:55.443Z,98560.02
2024-01-09T22:45:22.291Z,98556.78
2024-01-09T22:47:49.177Z,98557.11
2024-01-09T22:50:16.186Z,98560.00
2024-01-09T22:52:42.934Z,98563.22
2024-01-09T22:55:11.136Z,98565.42
2024-01-09T22:57:38.101Z,98562.86
2024-01-09T23:00:16.704Z,98564.73
2024-01-09T23:02:43.567Z,98560.99
2024-01-09T23:05:15.600Z,98563.02
2024-01-09T23:07:44.955Z,98561.00
2024-01-09T23:10:12.831Z,98562.16
2024-01-09T23:12:40.149Z,98560.30
2024-01-09T23:15:08.613Z,98557.23
2024-01-09T23:17:36.417Z,98553.67
2024-01-09T23:20:10.299Z,98550.77
2024-01-09T23:22:38.673Z,98549.55
2024-01-09T23:25:06.409Z,98549.20
2024-01-09T23:27:33.132Z,98550.02
2024-01-09T23:29:59.924Z,98553.55
2024-01-09T23:32:26.732Z,98556.08
2024-01-09T23:35:01.176Z,98552.31
2024-01-09T23:37:31.469Z,98556.36
2024-01-09T23:39:58.254Z,98555.34
2024-01-09T23:42:25.746Z,98558.86
2024-01-09T23:44:52.860Z,98559.20
2024-01-09T23:47:19.610Z,98556.30
2024-01-09T23:49:46.359Z,98555.95
2024-01-09T23:52:13.737Z,98559.98
2024-01-09T23:54:40.780Z,98558.13
2024-01-09T23:57:09.497Z,98560.81
2024-01-09T23:59:37.151Z,98563.34
